Main page
METAR-TAF:

METAR-TAF

Airports :

Suvarnabhumi Airport

Bangkok-Suvarnabhumi, Thailand

latitude: 13-40-52N, longitude: 100-44-50E, elevation: 2 m

Current weather observation

The report was made 26 minutes ago, at 21:00 UTC
Wind 4 kt from the North/Northeast
Temperature 27°C
Humidity 89%
Pressure 1008 hPa
Visibility 10 km or more
Few clouds at a height of 2000 ft

METAR: VTBS 012100Z 03004KT 9999 FEW020 27/25 Q1008 NOSIG

Time: 04:26 (21:26 UTC)

Forecast

The report was made 4 hours and 26 minutes ago, at 17:00 UTC
Forecast valid from 01 at 18 UTC to 02 at 24 UTC
Wind 5 kt from the North/Northeast
Visibility: 9000 m
Few clouds at a height of 2000 ft
Scattered clouds at a height of 8000 ft
Becoming
from 01 at 20 UTC to 01 at 22 UTC
Wind 5 kt from the North/Northwest
Becoming
from 02 at 02 UTC to 02 at 04 UTC
Wind 8 kt from the Northeast

TAF: VTBS 011700Z 0118/0224 03005KT 9000 FEW020 SCT080 BECMG 0120/0122 33005KT BECMG 0202/0204 04008KT

Weather observations and forecasts of more than 4000 airports (METAR and TAF reports).

The available stations are represented by yellow and red dots on the map.

Hover mouse over dot to see the name of the station.

Then click to see weather observations and forecasts.

To change the map : click on the green buttons with a black cross to zoom in, on the green button with a dash to zoom out, or on the green arrows for adjacent maps.


METAR-TAF: